createdAt,value
2017-09-22T04:41:22.734Z,18.40
2017-09-22T04:43:48.793Z,13.70
2017-09-22T04:46:14.861Z,13.60
2017-09-22T04:48:40.925Z,13.60
2017-09-22T04:51:07.726Z,13.40
2017-09-22T04:53:33.790Z,13.40
2017-09-22T04:55:59.841Z,13.40
2017-09-22T04:58:25.898Z,13.40
2017-09-22T05:00:52.690Z,13.40
2017-09-22T05:03:18.748Z,13.30
2017-09-22T05:05:45.749Z,13.40
2017-09-22T05:08:11.792Z,13.30
2017-09-22T05:10:37.878Z,13.30
2017-09-22T05:13:04.661Z,13.30
2017-09-22T05:15:30.729Z,13.30
2017-09-22T05:17:56.781Z,13.30
2017-09-22T05:20:22.847Z,13.30
2017-09-22T05:22:48.904Z,13.30
2017-09-22T05:25:14.950Z,13.30
2017-09-22T05:27:41.748Z,13.20
2017-09-22T05:30:07.809Z,13.20
2017-09-22T05:32:33.863Z,13.20
2017-09-22T05:34:59.940Z,13.10
2017-09-22T05:37:25.989Z,13.10
2017-09-22T05:39:52.044Z,13.10
2017-09-22T05:42:18.080Z,13.20
2017-09-22T05:44:44.155Z,13.20
2017-09-22T05:47:10.188Z,13.20
2017-09-22T05:49:36.225Z,13.20
2017-09-22T05:52:02.293Z,13.30
2017-09-22T05:54:28.334Z,13.30
2017-09-22T05:56:54.372Z,13.30
2017-09-22T05:59:21.172Z,13.30
2017-09-22T06:01:47.217Z,13.30
2017-09-22T06:04:14.000Z,13.30
2017-09-22T06:06:40.081Z,13.30
2017-09-22T06:09:06.141Z,13.30
2017-09-22T06:11:32.220Z,13.40
2017-09-22T06:13:58.299Z,13.40
2017-09-22T06:16:24.379Z,13.50
2017-09-22T06:18:50.413Z,13.50
2017-09-22T06:21:16.462Z,13.40
2017-09-22T06:23:42.500Z,13.40
2017-09-22T06:26:08.533Z,13.30
2017-09-22T06:28:34.592Z,13.40
2017-09-22T06:31:00.641Z,13.50
2017-09-22T06:33:27.457Z,13.60
2017-09-22T06:35:53.512Z,13.60
2017-09-22T06:38:19.609Z,13.60
2017-09-22T06:40:45.656Z,13.70
2017-09-22T06:43:11.737Z,13.80
2017-09-22T06:45:37.828Z,13.90
2017-09-22T06:48:04.041Z,14.10
2017-09-22T06:50:30.089Z,14.30
2017-09-22T06:52:56.133Z,14.50
2017-09-22T06:55:22.933Z,14.80
2017-09-22T06:57:48.986Z,14.70
2017-09-22T07:00:15.024Z,14.90
2017-09-22T07:02:41.073Z,15.00
2017-09-22T07:05:07.176Z,15.00
2017-09-22T07:07:33.244Z,15.20
2017-09-22T07:09:59.318Z,15.30
2017-09-22T09:08:12.895Z,15.30
2017-09-22T09:10:39.714Z,25.40
2017-09-22T09:13:06.518Z,26.20
2017-09-22T09:15:32.573Z,26.10
2017-09-22T09:17:58.624Z,26.60
2017-09-22T09:20:24.688Z,26.60
2017-09-22T09:22:50.749Z,26.40
2017-09-22T09:25:16.807Z,25.70
2017-09-22T09:27:42.857Z,25.50
2017-09-22T09:30:08.914Z,25.20
2017-09-22T10:07:04.512Z,21.40
2017-09-22T10:09:30.542Z,21.20
2017-09-22T10:11:57.304Z,21.20
2017-09-22T10:14:23.349Z,21.20
2017-09-22T10:16:49.405Z,21.50
2017-09-22T10:19:15.480Z,21.70
2017-09-22T10:21:42.261Z,22.30
2017-09-22T10:24:08.333Z,22.30
2017-09-22T10:29:02.190Z,22.70
2017-09-22T10:31:28.245Z,23.50
2017-09-22T10:33:54.314Z,23.40
2017-09-22T10:36:20.344Z,23.40
2017-09-22T10:38:46.426Z,23.30
2017-09-22T10:41:13.208Z,22.80
2017-09-22T10:43:39.262Z,22.70
2017-09-22T10:46:05.342Z,22.60
2017-09-22T10:48:31.434Z,22.40
2017-09-22T10:50:58.219Z,22.20
2017-09-22T10:53:24.243Z,22.10
2017-09-22T10:55:50.333Z,22.20
2017-09-22T11:00:44.208Z,22.20
2017-09-22T11:03:10.284Z,21.70
2017-09-22T11:05:36.403Z,21.50
2017-09-22T11:08:02.457Z,21.50
2017-09-22T11:10:28.510Z,21.50
2017-09-22T11:12:55.297Z,21.20
2017-09-22T11:15:21.376Z,21.10
2017-09-22T11:39:58.708Z,21.00
2017-09-22T11:42:24.768Z,22.20
2017-09-22T11:44:50.800Z,22.60
2017-09-22T11:47:16.853Z,22.90
2017-09-22T11:49:42.897Z,23.20
2017-09-22T11:52:08.963Z,23.60
2017-09-22T11:54:35.045Z,24.00
2017-09-22T11:57:01.103Z,24.10
2017-09-22T11:59:27.892Z,23.80
2017-09-22T12:01:53.957Z,23.80
2017-09-22T12:04:20.017Z,23.50
2017-09-22T12:06:52.976Z,23.40
2017-09-22T12:09:19.057Z,23.10
2017-09-22T12:11:45.104Z,22.80
2017-09-22T12:14:11.121Z,22.50
2017-09-22T12:16:37.154Z,22.00
2017-09-22T12:19:03.191Z,21.70
2017-09-22T16:25:33.720Z,18.60
2017-09-22T16:27:59.772Z,18.50
2017-09-22T16:30:26.557Z,18.40
2017-09-22T16:32:52.624Z,18.40
2017-09-22T16:35:19.437Z,18.40
2017-09-22T16:37:46.249Z,18.30
2017-09-22T16:40:12.314Z,18.30
2017-09-22T16:42:38.379Z,18.20
2017-09-22T16:45:05.192Z,18.20
2017-09-22T16:47:31.246Z,18.20
2017-09-22T16:49:57.301Z,18.20
2017-09-22T16:52:23.345Z,18.10
2017-09-22T16:54:50.136Z,18.20
2017-09-22T16:57:16.189Z,18.20
2017-09-22T16:59:42.233Z,18.10
2017-09-22T17:02:08.797Z,18.00
2017-09-22T17:04:35.591Z,17.90
2017-09-22T17:07:01.720Z,17.90
2017-09-22T17:09:27.829Z,17.90
2017-09-22T17:11:54.662Z,17.80
2017-09-22T17:14:20.726Z,17.90
2017-09-22T17:16:46.777Z,17.80
2017-09-22T17:19:13.950Z,17.70
2017-09-22T17:21:40.286Z,17.60
2017-09-22T17:24:06.357Z,17.70
2017-09-22T17:26:36.872Z,17.50
2017-09-22T17:29:03.683Z,17.50
2017-09-22T17:31:30.489Z,17.40
2017-09-22T17:33:56.540Z,17.50
2017-09-22T17:36:22.591Z,17.40
2017-09-22T17:38:48.685Z,17.40
2017-09-22T17:41:14.763Z,17.30
2017-09-22T17:43:40.823Z,17.30
2017-09-22T17:46:06.866Z,17.20
2017-09-22T17:48:33.641Z,17.20
2017-09-22T17:50:59.709Z,17.20
2017-09-22T17:53:26.512Z,17.20
2017-09-22T17:55:52.554Z,17.20
2017-09-22T17:58:18.857Z,17.20
2017-09-22T18:00:45.637Z,17.20
2017-09-22T18:03:11.691Z,17.20
2017-09-22T18:05:38.507Z,17.30
2017-09-22T18:08:05.333Z,17.20
2017-09-22T18:10:31.393Z,17.20
2017-09-22T18:12:57.701Z,17.20
2017-09-22T18:15:23.749Z,17.20
2017-09-22T18:17:49.805Z,17.10
2017-09-22T18:20:16.590Z,17.10
2017-09-22T18:22:42.703Z,17.10
2017-09-22T18:25:08.777Z,17.10
2017-09-22T18:27:34.817Z,17.10
2017-09-22T18:30:01.818Z,17.10
2017-09-22T18:32:27.952Z,17.10
2017-09-22T18:34:54.226Z,17.10
2017-09-22T18:37:20.265Z,17.10
2017-09-22T18:39:46.304Z,17.00
2017-09-22T18:42:12.352Z,16.90
2017-09-22T18:44:38.497Z,16.90
2017-09-22T18:47:04.562Z,17.00
2017-09-22T18:49:30.627Z,17.00
2017-09-22T18:51:56.680Z,17.00
2017-09-22T18:54:22.753Z,17.00
2017-09-22T18:56:48.809Z,17.00
2017-09-22T18:59:14.857Z,17.00
2017-09-22T19:01:40.941Z,17.00
2017-09-22T19:04:07.206Z,17.00
2017-09-22T19:06:33.256Z,17.00
2017-09-22T19:08:59.305Z,17.00
2017-09-22T19:11:25.330Z,17.00
2017-09-22T19:13:51.452Z,17.00
2017-09-22T19:16:18.247Z,17.00
2017-09-22T19:18:44.328Z,17.00
2017-09-22T19:21:10.385Z,17.00
2017-09-22T19:23:36.566Z,17.00
2017-09-22T19:26:02.621Z,17.00
2017-09-22T19:28:29.425Z,16.90
2017-09-22T19:30:55.485Z,16.90
2017-09-22T19:33:22.558Z,16.90
2017-09-22T19:35:48.625Z,16.90
2017-09-22T19:38:14.665Z,16.90
2017-09-22T19:40:40.815Z,16.90
2017-09-22T19:43:06.902Z,16.80
2017-09-22T19:45:32.937Z,16.80
2017-09-22T19:47:59.017Z,16.80
2017-09-22T20:32:18.065Z,16.80
2017-09-22T20:34:44.117Z,16.10
2017-09-22T20:37:10.889Z,16.10
2017-09-22T20:39:36.968Z,16.00
2017-09-22T20:42:03.009Z,16.00
2017-09-22T20:44:29.073Z,16.00
2017-09-22T20:46:55.196Z,16.00
2017-09-22T20:49:21.231Z,16.00
2017-09-22T20:51:47.270Z,16.00
2017-09-22T20:54:13.298Z,16.10
2017-09-22T20:56:39.316Z,16.10
2017-09-22T20:59:06.090Z,15.90
2017-09-22T21:01:32.150Z,15.80
2017-09-22T21:03:58.909Z,15.90
2017-09-22T21:06:25.030Z,15.90
2017-09-22T21:08:51.097Z,15.90
2017-09-22T21:11:17.899Z,15.90
2017-09-22T21:13:43.937Z,15.90
2017-09-22T21:16:10.012Z,15.80
2017-09-22T21:18:36.055Z,15.80
2017-09-22T21:21:02.833Z,15.90
2017-09-22T21:23:28.870Z,15.90
2017-09-22T21:25:54.934Z,15.90
2017-09-22T21:28:20.963Z,15.80
2017-09-22T21:30:47.016Z,15.80
2017-09-22T21:33:13.060Z,15.80
2017-09-22T21:35:39.104Z,15.80
2017-09-22T21:38:05.145Z,15.70
2017-09-22T21:40:31.227Z,15.70
2017-09-22T21:42:57.284Z,15.70
2017-09-22T21:45:24.280Z,15.60
2017-09-22T21:47:50.316Z,15.60
2017-09-22T21:50:16.344Z,15.60
2017-09-22T21:52:42.389Z,15.50
2017-09-22T21:55:08.457Z,15.50
2017-09-22T21:57:34.492Z,15.50
2017-09-22T22:00:00.523Z,15.40
2017-09-22T22:02:26.605Z,15.30
2017-09-22T22:04:58.669Z,15.30
2017-09-22T22:07:29.509Z,15.30
2017-09-22T22:09:56.289Z,15.30
2017-09-22T22:12:22.348Z,15.30
2017-09-22T22:14:49.141Z,15.30
2017-09-22T22:17:15.174Z,15.30
2017-09-22T22:19:41.204Z,15.40
2017-09-22T22:22:07.248Z,15.30
2017-09-22T22:24:33.271Z,15.20
2017-09-22T22:26:59.329Z,15.20
2017-09-22T22:29:25.384Z,15.10
2017-09-22T22:31:51.425Z,15.20
2017-09-22T22:34:17.470Z,15.20
2017-09-22T22:36:43.497Z,15.20
2017-09-22T22:39:09.570Z,15.20
2017-09-22T22:41:36.330Z,15.10
2017-09-22T22:44:02.377Z,15.10
2017-09-22T22:46:28.414Z,15.10
2017-09-22T22:48:54.448Z,15.10
2017-09-22T22:51:20.465Z,15.00
2017-09-22T22:53:46.496Z,15.00
2017-09-22T22:56:12.518Z,15.00
2017-09-22T22:58:38.559Z,15.00
2017-09-22T23:01:05.332Z,15.00
2017-09-22T23:03:31.385Z,15.00
2017-09-22T23:05:58.180Z,14.90
2017-09-22T23:08:24.222Z,14.90
2017-09-22T23:10:50.301Z,14.90
2017-09-22T23:13:16.389Z,14.90
2017-09-22T23:15:42.469Z,14.90
2017-09-22T23:18:08.493Z,14.90
2017-09-22T23:20:34.526Z,14.90
2017-09-22T23:23:00.552Z,14.90
2017-09-22T23:25:26.609Z,14.90
2017-09-22T23:27:52.652Z,14.90
2017-09-22T23:30:18.680Z,14.80
2017-09-22T23:32:44.719Z,14.90
2017-09-22T23:35:10.753Z,14.90
2017-09-22T23:37:36.802Z,14.80
2017-09-22T23:40:02.889Z,14.80
2017-09-22T23:42:28.919Z,14.80
2017-09-22T23:44:54.940Z,14.70
2017-09-22T23:47:21.071Z,14.60
2017-09-22T23:49:47.861Z,14.70
2017-09-22T23:52:13.888Z,14.70
2017-09-22T23:54:39.916Z,14.70
2017-09-22T23:57:05.946Z,14.70
2017-09-22T23:59:31.984Z,14.80
